createdAt,value
2018-01-28T00:00:18.953Z,0
2018-01-28T00:01:19.198Z,0
2018-01-28T00:02:19.187Z,0
2018-01-28T00:03:19.179Z,0
2018-01-28T00:04:18.915Z,0
2018-01-28T00:05:18.904Z,0
2018-01-28T00:06:19.145Z,0
2018-01-28T00:07:18.886Z,0
2018-01-28T00:08:19.127Z,0
2018-01-28T00:09:19.119Z,0
2018-01-28T00:10:19.105Z,0
2018-01-28T00:11:19.076Z,0
2018-01-28T00:12:19.071Z,0
2018-01-28T00:13:19.066Z,0
2018-01-28T00:14:18.803Z,0
2018-01-28T00:15:19.042Z,0
2018-01-28T00:16:19.026Z,0
2018-01-28T00:17:18.757Z,0
2018-01-28T00:18:18.996Z,0
2018-01-28T00:19:18.984Z,0
2018-01-28T00:20:18.974Z,0
2018-01-28T00:21:18.712Z,0
2018-01-28T00:22:18.945Z,0
2018-01-28T00:23:18.428Z,0
2018-01-28T00:24:18.922Z,0
2018-01-28T00:25:18.910Z,0
2018-01-28T00:26:18.896Z,0
2018-01-28T00:27:18.897Z,0
2018-01-28T00:28:18.625Z,0
2018-01-28T00:29:18.861Z,0
2018-01-28T00:30:18.868Z,0
2018-01-28T00:31:18.846Z,0
2018-01-28T00:32:18.328Z,0
2018-01-28T00:33:18.816Z,0
2018-01-28T00:34:18.546Z,0
2018-01-28T00:35:18.537Z,0
2018-01-28T00:36:18.269Z,0
2018-01-28T00:37:18.776Z,0
2018-01-28T00:38:18.750Z,0
2018-01-28T00:39:18.503Z,0
2018-01-28T00:40:18.480Z,0
2018-01-28T00:41:18.736Z,0
2018-01-28T00:42:18.710Z,0
2018-01-28T00:43:18.697Z,0
2018-01-28T00:44:18.691Z,0
2018-01-28T00:45:18.420Z,0
2018-01-28T00:46:18.406Z,0
2018-01-28T00:47:18.648Z,0
2018-01-28T00:48:18.641Z,0
2018-01-28T00:49:18.637Z,0
2018-01-28T00:50:18.619Z,0
2018-01-28T00:51:18.347Z,0
2018-01-28T00:52:18.341Z,0
2018-01-28T00:53:18.597Z,0
2018-01-28T00:54:18.067Z,0
2018-01-28T00:55:18.552Z,0
2018-01-28T00:56:18.551Z,0
2018-01-28T00:57:18.531Z,0
2018-01-28T00:58:18.522Z,0
2018-01-28T00:59:18.258Z,0
2018-01-28T01:00:18.251Z,0
2018-01-28T01:01:17.983Z,0
2018-01-28T01:02:18.473Z,0
2018-01-28T01:03:18.210Z,0
2018-01-28T01:04:18.457Z,0
2018-01-28T01:05:18.188Z,0
2018-01-28T01:06:18.168Z,0
2018-01-28T01:07:18.159Z,0
2018-01-28T01:08:18.417Z,0
2018-01-28T01:09:18.403Z,0
2018-01-28T01:10:18.386Z,0
2018-01-28T01:11:18.365Z,0
2018-01-28T01:12:18.357Z,0
2018-01-28T01:13:18.342Z,0
2018-01-28T01:14:18.335Z,0
2018-01-28T01:15:17.814Z,0
2018-01-28T01:16:17.824Z,0
2018-01-28T01:17:18.297Z,0
2018-01-28T01:18:18.040Z,0
2018-01-28T01:19:18.029Z,0
2018-01-28T01:20:18.012Z,0
2018-01-28T01:21:18.247Z,0
2018-01-28T01:22:17.989Z,0
2018-01-28T01:23:17.721Z,0
2018-01-28T01:24:18.218Z,0
2018-01-28T01:25:18.202Z,0
2018-01-28T01:26:18.197Z,0
2018-01-28T01:27:18.178Z,0
2018-01-28T01:28:18.168Z,0
2018-01-28T01:29:18.162Z,0
2018-01-28T01:30:17.895Z,0
2018-01-28T01:31:17.933Z,0
2018-01-28T01:32:17.870Z,0
2018-01-28T01:33:18.112Z,0
2018-01-28T01:34:17.847Z,0
2018-01-28T01:35:17.836Z,0
2018-01-28T01:36:18.076Z,0
2018-01-28T01:37:17.815Z,0
2018-01-28T01:38:17.801Z,0
2018-01-28T01:39:17.788Z,0
2018-01-28T01:40:18.038Z,0
2018-01-28T01:41:17.769Z,0
2018-01-28T01:42:18.010Z,0
2018-01-28T01:43:17.793Z,0
2018-01-28T01:44:17.980Z,0
2018-01-28T01:45:17.983Z,0
2018-01-28T01:46:17.959Z,0
2018-01-28T01:47:17.814Z,0
2018-01-28T01:48:17.940Z,0
2018-01-28T01:49:17.927Z,0
2018-01-28T01:50:17.662Z,0
2018-01-28T01:51:17.666Z,0
2018-01-28T01:52:17.894Z,0
2018-01-28T01:53:17.882Z,0
2018-01-28T01:54:17.619Z,0
2018-01-28T01:55:17.603Z,0
2018-01-28T01:56:17.841Z,0
2018-01-28T01:57:17.581Z,0
2018-01-28T01:58:17.827Z,0
2018-01-28T01:59:17.564Z,0
2018-01-28T02:00:17.798Z,0
2018-01-28T02:01:17.782Z,0
2018-01-28T02:02:17.776Z,0
2018-01-28T02:03:17.509Z,0
2018-01-28T02:04:17.753Z,0
2018-01-28T02:05:17.489Z,0
2018-01-28T02:06:17.473Z,0
2018-01-28T02:07:17.722Z,0
2018-01-28T02:08:17.710Z,0
2018-01-28T02:09:17.694Z,0
2018-01-28T02:10:17.683Z,0
2018-01-28T02:11:17.435Z,0
2018-01-28T02:12:17.408Z,0
2018-01-28T02:13:17.650Z,0
2018-01-28T02:14:17.631Z,0
2018-01-28T02:15:17.623Z,0
2018-01-28T02:16:17.621Z,0
2018-01-28T02:17:17.093Z,0
2018-01-28T02:18:17.432Z,0
2018-01-28T02:19:17.582Z,0
2018-01-28T02:20:17.311Z,0
2018-01-28T02:21:17.304Z,0
2018-01-28T02:22:17.542Z,0
2018-01-28T02:23:17.286Z,0
2018-01-28T02:24:17.268Z,0
2018-01-28T02:25:17.515Z,0
2018-01-28T02:26:17.247Z,0
2018-01-28T02:27:17.238Z,0
2018-01-28T02:28:17.482Z,0
2018-01-28T02:29:17.214Z,0
2018-01-28T02:30:17.467Z,0
2018-01-28T02:31:17.204Z,0
2018-01-28T02:32:17.450Z,0
2018-01-28T02:33:17.422Z,0
2018-01-28T02:34:17.472Z,0
2018-01-28T02:35:17.400Z,0
2018-01-28T02:36:17.402Z,0
2018-01-28T02:37:17.374Z,0
2018-01-28T02:38:17.112Z,0
2018-01-28T02:39:17.353Z,0
2018-01-28T02:40:17.091Z,0
2018-01-28T02:41:17.071Z,0
2018-01-28T02:42:16.813Z,0
2018-01-28T02:43:17.054Z,0
2018-01-28T02:44:17.303Z,0
2018-01-28T02:45:17.287Z,0
2018-01-28T02:46:17.268Z,0
2018-01-28T02:47:17.262Z,0
2018-01-28T02:48:17.259Z,0
2018-01-28T02:49:17.237Z,0
2018-01-28T02:50:17.231Z,0
2018-01-28T02:51:16.962Z,0
2018-01-28T02:52:17.200Z,0
2018-01-28T02:53:17.194Z,0
2018-01-28T02:54:17.188Z,0
2018-01-28T02:55:17.173Z,0
2018-01-28T02:56:17.163Z,0
2018-01-28T02:57:17.147Z,0
2018-01-28T02:58:16.881Z,0
2018-01-28T02:59:17.133Z,0
2018-01-28T03:00:17.108Z,0
2018-01-28T03:01:16.592Z,0
2018-01-28T03:02:16.837Z,0
2018-01-28T03:03:17.079Z,0
2018-01-28T03:04:17.077Z,0
2018-01-28T03:05:16.803Z,0
2018-01-28T03:06:16.788Z,0
2018-01-28T03:07:17.048Z,0
2018-01-28T03:08:16.513Z,0
2018-01-28T03:09:16.757Z,0
2018-01-28T03:10:16.747Z,0
2018-01-28T03:11:16.992Z,0
2018-01-28T03:12:16.724Z,0
2018-01-28T03:13:16.458Z,0
2018-01-28T03:14:16.702Z,0
2018-01-28T03:15:16.941Z,0
2018-01-28T03:16:16.678Z,0
2018-01-28T03:17:16.924Z,0
2018-01-28T03:18:16.956Z,0
2018-01-28T03:19:16.644Z,0
2018-01-28T03:20:16.886Z,0
2018-01-28T03:21:16.621Z,0
2018-01-28T03:22:16.612Z,0
2018-01-28T03:23:16.859Z,0
2018-01-28T03:24:16.843Z,0
2018-01-28T03:25:16.847Z,0
2018-01-28T03:26:16.569Z,0
2018-01-28T03:27:16.803Z,0
2018-01-28T03:28:16.799Z,0
2018-01-28T03:29:16.798Z,0
2018-01-28T03:30:16.790Z,0
2018-01-28T03:31:16.776Z,0
2018-01-28T03:32:16.494Z,0
2018-01-28T03:33:16.747Z,0
2018-01-28T03:34:16.487Z,0
2018-01-28T03:35:16.460Z,0
2018-01-28T03:36:16.453Z,0
2018-01-28T03:37:16.456Z,0
2018-01-28T03:38:16.682Z,0
2018-01-28T03:39:16.418Z,0
2018-01-28T03:40:16.406Z,0
2018-01-28T03:41:16.646Z,0
2018-01-28T03:42:16.382Z,0
2018-01-28T03:43:16.369Z,0
2018-01-28T03:44:16.666Z,0
2018-01-28T03:45:16.604Z,0
2018-01-28T03:46:16.590Z,0
2018-01-28T03:47:16.581Z,0
2018-01-28T03:48:16.639Z,0
2018-01-28T03:49:16.311Z,0
2018-01-28T03:50:16.547Z,0
2018-01-28T03:51:16.533Z,0
2018-01-28T03:52:16.523Z,0
2018-01-28T03:53:16.514Z,0
2018-01-28T03:54:16.499Z,0
2018-01-28T03:55:16.495Z,0
2018-01-28T03:56:16.488Z,0
2018-01-28T03:57:16.468Z,0
2018-01-28T03:58:16.486Z,0
2018-01-28T03:59:16.451Z,0
2018-01-28T04:00:16.178Z,0
2018-01-28T04:01:16.166Z,0
2018-01-28T04:02:16.416Z,0
2018-01-28T04:03:16.401Z,0
2018-01-28T04:04:16.388Z,0
2018-01-28T04:05:15.870Z,0
2018-01-28T04:06:16.363Z,0
2018-01-28T04:07:16.348Z,0
2018-01-28T04:08:16.341Z,0
2018-01-28T04:09:16.339Z,0
2018-01-28T04:10:16.322Z,0
2018-01-28T04:11:16.054Z,0
2018-01-28T04:12:16.296Z,0
2018-01-28T04:13:16.032Z,0
2018-01-28T04:14:16.023Z,0
2018-01-28T04:15:16.261Z,0
2018-01-28T04:16:15.994Z,0
2018-01-28T04:17:15.988Z,0
2018-01-28T04:18:16.225Z,0
2018-01-28T04:19:16.212Z,0
2018-01-28T04:20:16.210Z,0
2018-01-28T04:21:16.200Z,0
2018-01-28T04:22:16.193Z,0
2018-01-28T04:23:16.172Z,0
2018-01-28T04:24:15.905Z,0
2018-01-28T04:25:16.148Z,0
2018-01-28T04:26:16.137Z,0
2018-01-28T04:27:16.131Z,0
2018-01-28T04:28:15.860Z,0
2018-01-28T04:29:16.110Z,0
2018-01-28T04:30:16.097Z,0
2018-01-28T04:31:16.085Z,0
2018-01-28T04:32:16.074Z,0
2018-01-28T04:33:15.807Z,0
2018-01-28T04:34:16.046Z,0
2018-01-28T04:35:16.035Z,0
2018-01-28T04:36:16.023Z,0
2018-01-28T04:37:16.016Z,0
2018-01-28T04:38:15.748Z,0
2018-01-28T04:39:15.991Z,0
2018-01-28T04:40:15.979Z,0
2018-01-28T04:41:15.970Z,0
2018-01-28T04:42:15.955Z,0
2018-01-28T04:43:15.702Z,0
2018-01-28T04:44:15.935Z,0
2018-01-28T04:45:15.921Z,0
2018-01-28T04:46:15.911Z,0
2018-01-28T04:47:15.903Z,0
2018-01-28T04:48:15.892Z,0
2018-01-28T04:49:15.890Z,0
2018-01-28T04:50:15.616Z,0
2018-01-28T04:51:15.613Z,0
2018-01-28T04:52:15.840Z,0
2018-01-28T04:53:15.581Z,0
2018-01-28T04:54:15.826Z,0
2018-01-28T04:55:15.809Z,0
2018-01-28T04:56:15.797Z,0
2018-01-28T04:57:15.794Z,0
2018-01-28T04:58:15.777Z,0
2018-01-28T04:59:15.779Z,0
2018-01-28T05:00:15.765Z,0
2018-01-28T05:01:15.744Z,0
2018-01-28T05:02:15.478Z,0
2018-01-28T05:03:15.780Z,0
2018-01-28T05:04:15.710Z,0
2018-01-28T05:05:15.445Z,0
2018-01-28T05:06:15.452Z,0
2018-01-28T05:07:15.679Z,0
2018-01-28T05:08:15.157Z,0
2018-01-28T05:09:15.661Z,0
2018-01-28T05:10:15.425Z,0
2018-01-28T05:11:15.638Z,0
2018-01-28T05:12:15.618Z,0
2018-01-28T05:13:15.352Z,0
2018-01-28T05:14:15.362Z,0
2018-01-28T05:15:15.346Z,0
2018-01-28T05:16:15.577Z,0
2018-01-28T05:17:15.564Z,0
2018-01-28T05:18:15.313Z,0
2018-01-28T05:19:15.302Z,0
2018-01-28T05:20:15.279Z,0
2018-01-28T05:21:15.026Z,0
2018-01-28T05:22:15.000Z,0
2018-01-28T05:23:15.254Z,0
2018-01-28T05:24:15.485Z,0
2018-01-28T05:25:15.474Z,0
2018-01-28T05:26:15.462Z,0
2018-01-28T05:27:15.451Z,0
2018-01-28T05:28:14.929Z,0
2018-01-28T05:29:15.430Z,0
2018-01-28T05:30:15.416Z,0
2018-01-28T05:31:15.403Z,0
2018-01-28T05:32:15.403Z,0
2018-01-28T05:33:15.132Z,0
2018-01-28T05:34:15.368Z,0
2018-01-28T05:35:15.107Z,0
2018-01-28T05:36:15.351Z,0
2018-01-28T05:37:15.101Z,0
2018-01-28T05:38:15.324Z,0
2018-01-28T05:39:15.311Z,0
2018-01-28T05:40:15.297Z,0
2018-01-28T05:41:15.038Z,0
2018-01-28T05:42:14.771Z,0
2018-01-28T05:43:15.268Z,0
2018-01-28T05:44:15.260Z,0
2018-01-28T05:45:15.244Z,0
2018-01-28T05:46:15.232Z,0
2018-01-28T05:47:14.968Z,0
2018-01-28T05:48:15.217Z,0
2018-01-28T05:49:15.198Z,0
2018-01-28T05:50:15.187Z,0
2018-01-28T05:51:15.193Z,0
2018-01-28T05:52:15.165Z,0
2018-01-28T05:53:15.156Z,0
2018-01-28T05:54:15.153Z,0
2018-01-28T05:55:14.890Z,0
2018-01-28T05:56:14.865Z,0
2018-01-28T05:57:15.104Z,0
2018-01-28T05:58:15.103Z,0
2018-01-28T05:59:15.090Z,0
2018-01-28T06:00:15.076Z,0
2018-01-28T06:01:15.062Z,0
2018-01-28T06:02:14.803Z,0
2018-01-28T06:03:14.787Z,0
2018-01-28T06:04:15.030Z,0
2018-01-28T06:05:14.764Z,0
2018-01-28T06:06:15.011Z,0
2018-01-28T06:07:14.744Z,0
2018-01-28T06:08:14.982Z,0
2018-01-28T06:09:14.975Z,0
2018-01-28T06:10:14.963Z,0
2018-01-28T06:11:14.950Z,0
2018-01-28T06:12:14.690Z,0
2018-01-28T06:13:15.009Z,0
2018-01-28T06:14:14.666Z,0
2018-01-28T06:15:14.910Z,0
2018-01-28T06:16:14.644Z,0
2018-01-28T06:17:14.634Z,0
2018-01-28T06:18:14.872Z,0
2018-01-28T06:19:14.865Z,0
2018-01-28T06:20:14.851Z,0
2018-01-28T06:21:14.585Z,0
2018-01-28T06:22:14.571Z,0
2018-01-28T06:23:14.842Z,0
2018-01-28T06:24:14.919Z,0
2018-01-28T06:25:14.801Z,0
2018-01-28T06:26:14.839Z,0
2018-01-28T06:27:14.768Z,0
2018-01-28T06:28:14.502Z,4
2018-01-28T06:29:14.754Z,4
2018-01-28T06:30:14.746Z,4
2018-01-28T06:31:14.732Z,4
2018-01-28T06:32:14.716Z,4
2018-01-28T06:33:14.708Z,4
2018-01-28T06:34:14.696Z,4
2018-01-28T06:35:14.684Z,8
2018-01-28T06:36:14.417Z,4
2018-01-28T06:37:14.666Z,4
2018-01-28T06:38:14.160Z,8
2018-01-28T06:39:14.639Z,12
2018-01-28T06:40:14.628Z,12
2018-01-28T06:41:14.362Z,16
2018-01-28T06:42:14.354Z,16
2018-01-28T06:43:14.596Z,20
2018-01-28T06:44:14.582Z,20
2018-01-28T06:45:14.573Z,24
2018-01-28T06:46:14.566Z,24
2018-01-28T06:47:14.543Z,24
2018-01-28T06:48:14.281Z,28
2018-01-28T06:49:14.522Z,28
2018-01-28T06:50:14.525Z,36
2018-01-28T06:51:14.501Z,40
2018-01-28T06:52:14.235Z,48
2018-01-28T06:53:14.477Z,44
2018-01-28T06:54:14.472Z,48
2018-01-28T06:55:14.462Z,48
2018-01-28T06:56:13.934Z,44
2018-01-28T06:57:14.438Z,52
2018-01-28T06:58:14.416Z,56
2018-01-28T06:59:14.412Z,64
2018-01-28T07:00:14.145Z,64
2018-01-28T07:01:14.385Z,68
2018-01-28T07:02:14.375Z,68
2018-01-28T07:03:14.372Z,76
2018-01-28T07:04:14.100Z,92
2018-01-28T07:05:14.098Z,96
2018-01-28T07:06:14.336Z,104
2018-01-28T07:07:14.315Z,108
2018-01-28T07:08:14.062Z,116
2018-01-28T07:09:14.046Z,116
2018-01-28T07:10:14.331Z,132
2018-01-28T07:11:14.021Z,148
2018-01-28T07:12:14.273Z,148
2018-01-28T07:13:14.249Z,152
2018-01-28T07:14:14.237Z,176
2018-01-28T07:15:14.224Z,168
2018-01-28T07:16:13.959Z,176
2018-01-28T07:17:14.205Z,200
2018-01-28T07:18:13.937Z,192
2018-01-28T07:19:14.179Z,216
2018-01-28T07:20:14.174Z,196
2018-01-28T07:21:13.902Z,208
2018-01-28T07:22:13.900Z,216
2018-01-28T07:23:13.878Z,252
2018-01-28T07:24:14.125Z,264
2018-01-28T07:25:14.108Z,288
2018-01-28T07:26:14.095Z,352
2018-01-28T07:27:14.087Z,408
2018-01-28T07:28:13.824Z,448
2018-01-28T07:29:14.078Z,488
2018-01-28T07:30:14.055Z,440
2018-01-28T07:31:14.045Z,496
2018-01-28T07:32:14.031Z,516
2018-01-28T07:33:14.022Z,552
2018-01-28T07:34:14.010Z,540
2018-01-28T07:35:14.018Z,476
2018-01-28T07:36:13.982Z,468
2018-01-28T07:37:13.969Z,516
2018-01-28T07:38:13.959Z,576
2018-01-28T07:39:13.444Z,672
2018-01-28T07:40:13.681Z,688
2018-01-28T07:41:13.925Z,608
2018-01-28T07:42:13.659Z,496
2018-01-28T07:43:13.699Z,452
2018-01-28T07:44:13.893Z,536
2018-01-28T07:45:13.622Z,508
2018-01-28T07:46:13.618Z,516
2018-01-28T07:47:13.609Z,724
2018-01-28T07:48:13.842Z,524
2018-01-28T07:49:13.583Z,584
2018-01-28T07:50:13.818Z,588
2018-01-28T07:51:13.552Z,452
2018-01-28T07:52:13.542Z,548
2018-01-28T07:53:13.788Z,596
2018-01-28T07:54:13.527Z,672
2018-01-28T07:55:13.766Z,716
2018-01-28T07:56:13.245Z,752
2018-01-28T07:57:13.741Z,712
2018-01-28T07:58:13.224Z,792
2018-01-28T07:59:13.468Z,828
2018-01-28T08:00:13.713Z,932
2018-01-28T08:01:13.695Z,980
2018-01-28T08:02:13.685Z,1304
2018-01-28T08:03:13.677Z,1064
2018-01-28T08:04:13.413Z,892
2018-01-28T08:05:13.147Z,1044
2018-01-28T08:06:13.390Z,748
2018-01-28T08:07:13.627Z,764
2018-01-28T08:08:13.368Z,820
2018-01-28T08:09:13.352Z,692
2018-01-28T08:10:13.595Z,744
2018-01-28T08:11:13.579Z,768
2018-01-28T08:12:13.577Z,800
2018-01-28T08:13:13.306Z,1032
2018-01-28T08:14:13.548Z,1204
2018-01-28T08:15:13.031Z,984
2018-01-28T08:16:13.277Z,1068
2018-01-28T08:17:13.515Z,1064
2018-01-28T08:18:13.253Z,1096
2018-01-28T08:19:13.293Z,896
2018-01-28T08:20:12.718Z,924
2018-01-28T08:21:13.217Z,1072
2018-01-28T08:22:12.954Z,1096
2018-01-28T08:23:13.245Z,1340
2018-01-28T08:24:13.436Z,1588
2018-01-28T08:25:13.434Z,1624
2018-01-28T08:26:13.157Z,1660
2018-01-28T08:27:13.420Z,1800
2018-01-28T08:28:12.952Z,1812
2018-01-28T08:29:13.122Z,1500
2018-01-28T08:30:12.863Z,1708
2018-01-28T08:31:13.110Z,1984
2018-01-28T08:32:13.351Z,1600
2018-01-28T08:33:13.090Z,1588
2018-01-28T08:34:12.818Z,1684
2018-01-28T08:35:13.057Z,1608
2018-01-28T08:36:13.298Z,1532
2018-01-28T08:37:13.291Z,1304
2018-01-28T08:38:13.281Z,1256
2018-01-28T08:39:12.765Z,1484
2018-01-28T08:40:13.259Z,1500
2018-01-28T08:41:13.315Z,1452
2018-01-28T08:42:13.237Z,1316
2018-01-28T08:43:13.228Z,1192
2018-01-28T08:44:12.977Z,1156
2018-01-28T08:45:13.208Z,1156
2018-01-28T08:46:12.439Z,1624
2018-01-28T08:47:13.176Z,1384
2018-01-28T08:48:12.916Z,1588
2018-01-28T08:49:13.158Z,2092
2018-01-28T08:50:12.891Z,2712
2018-01-28T08:51:12.887Z,2452
2018-01-28T08:52:13.131Z,2868
2018-01-28T08:53:12.357Z,2016
2018-01-28T08:54:13.107Z,1560
2018-01-28T08:55:12.838Z,1700
2018-01-28T08:56:12.850Z,1948
2018-01-28T08:57:13.071Z,1804
2018-01-28T08:58:12.809Z,1544
2018-01-28T08:59:12.540Z,1720
2018-01-28T09:00:13.040Z,1568
2018-01-28T09:01:13.026Z,1448
2018-01-28T09:02:13.016Z,1472
2018-01-28T09:03:12.754Z,1564
2018-01-28T09:04:12.739Z,2096
2018-01-28T09:05:12.730Z,2660
2018-01-28T09:06:12.731Z,1828
2018-01-28T09:07:12.455Z,2416
2018-01-28T09:08:12.696Z,2804
2018-01-28T09:09:12.935Z,1920
2018-01-28T09:10:12.928Z,1680
2018-01-28T09:11:12.918Z,1904
2018-01-28T09:12:12.907Z,2800
2018-01-28T09:13:12.897Z,3560
2018-01-28T09:14:12.893Z,4280
2018-01-28T09:15:12.882Z,4572
2018-01-28T09:16:12.864Z,4532
2018-01-28T09:17:12.853Z,4536
2018-01-28T09:18:12.336Z,5380
2018-01-28T09:19:12.582Z,5328
2018-01-28T09:20:12.824Z,4588
2018-01-28T09:21:12.810Z,5668
2018-01-28T09:22:12.545Z,7336
2018-01-28T09:23:12.599Z,6832
2018-01-28T09:24:12.795Z,6532
2018-01-28T09:25:12.771Z,5864
2018-01-28T09:26:12.536Z,4520
2018-01-28T09:27:12.753Z,4900
2018-01-28T09:28:12.486Z,5288
2018-01-28T09:29:12.478Z,4660
2018-01-28T09:30:12.725Z,4860
2018-01-28T09:31:12.459Z,5688
2018-01-28T09:32:12.713Z,4924
2018-01-28T09:33:12.700Z,5828
2018-01-28T09:34:12.431Z,8432
2018-01-28T09:35:12.673Z,9484
2018-01-28T09:36:12.407Z,7352
2018-01-28T09:37:12.646Z,6228
2018-01-28T09:38:12.654Z,7132
2018-01-28T09:39:12.379Z,5912
2018-01-28T09:40:12.619Z,6612
2018-01-28T09:41:12.359Z,5856
2018-01-28T09:42:12.346Z,7468
2018-01-28T09:43:12.088Z,10080
2018-01-28T09:44:12.335Z,10652
2018-01-28T09:45:12.571Z,10692
2018-01-28T09:46:12.322Z,9976
2018-01-28T09:47:12.049Z,9924
2018-01-28T09:48:12.565Z,8900
2018-01-28T09:49:12.299Z,9196
2018-01-28T09:50:12.528Z,10064
2018-01-28T09:51:12.268Z,7052
2018-01-28T09:52:12.521Z,6208
2018-01-28T09:53:12.266Z,7400
2018-01-28T09:54:12.238Z,6656
2018-01-28T09:55:12.244Z,7232
2018-01-28T09:56:12.470Z,6880
2018-01-28T09:57:12.475Z,8168
2018-01-28T09:58:12.460Z,7988
2018-01-28T09:59:11.940Z,9792
2018-01-28T10:00:12.435Z,11056
2018-01-28T10:01:12.433Z,12188
2018-01-28T10:02:12.427Z,12132
2018-01-28T10:03:12.166Z,12060
2018-01-28T10:04:12.148Z,10152
2018-01-28T10:05:12.189Z,7668
2018-01-28T10:06:12.134Z,7784
2018-01-28T10:07:11.878Z,7500
2018-01-28T10:08:12.125Z,7336
2018-01-28T10:09:12.111Z,7408
2018-01-28T10:10:12.353Z,7016
2018-01-28T10:11:12.347Z,7148
2018-01-28T10:12:12.081Z,7388
2018-01-28T10:13:12.075Z,7408
2018-01-28T10:14:12.089Z,7636
2018-01-28T10:15:12.060Z,7356
2018-01-28T10:16:12.056Z,7804
2018-01-28T10:17:12.042Z,7808
2018-01-28T10:18:12.294Z,7288
2018-01-28T10:19:12.285Z,6956
2018-01-28T10:20:12.268Z,6796
2018-01-28T10:21:11.807Z,6384
2018-01-28T10:22:12.009Z,5948
2018-01-28T10:23:12.003Z,5504
2018-01-28T10:24:11.730Z,5144
2018-01-28T10:25:11.723Z,4896
2018-01-28T10:26:11.965Z,4724
2018-01-28T10:27:11.958Z,5016
2018-01-28T10:28:11.947Z,4488
2018-01-28T10:29:12.214Z,4580
2018-01-28T10:30:12.195Z,4692
2018-01-28T10:31:11.938Z,4808
2018-01-28T10:32:11.658Z,5224
2018-01-28T10:33:11.904Z,6004
2018-01-28T10:34:12.156Z,6876
2018-01-28T10:35:12.137Z,6868
2018-01-28T10:36:12.131Z,6860
2018-01-28T10:37:12.127Z,7460
2018-01-28T10:38:11.359Z,8148
2018-01-28T10:39:12.116Z,8208
2018-01-28T10:40:11.848Z,8564
2018-01-28T10:41:11.605Z,7496
2018-01-28T10:42:11.824Z,6332
2018-01-28T10:43:12.070Z,7072
2018-01-28T10:44:12.073Z,6908
2018-01-28T10:45:11.805Z,7132
2018-01-28T10:46:12.048Z,6724
2018-01-28T10:47:11.785Z,6160
2018-01-28T10:48:12.027Z,6104
2018-01-28T10:49:11.528Z,4860
2018-01-28T10:50:11.511Z,4544
2018-01-28T10:51:12.021Z,5168
2018-01-28T10:52:11.995Z,5436
2018-01-28T10:53:11.996Z,5004
2018-01-28T10:54:11.994Z,5584
2018-01-28T10:55:11.989Z,5576
2018-01-28T10:56:11.971Z,5692
2018-01-28T10:57:11.957Z,6232
2018-01-28T10:58:12.441Z,6764
2018-01-28T10:59:11.949Z,5904
2018-01-28T11:00:11.927Z,5192
2018-01-28T11:01:11.676Z,5036
2018-01-28T11:02:11.915Z,5952
2018-01-28T11:03:11.898Z,6408
2018-01-28T11:04:11.383Z,5896
2018-01-28T11:05:11.887Z,6040
2018-01-28T11:06:11.619Z,6056
2018-01-28T11:07:11.870Z,6828
2018-01-28T11:08:11.856Z,7356
2018-01-28T11:09:11.594Z,6976
2018-01-28T11:10:11.840Z,7396
2018-01-28T11:11:11.327Z,7344
2018-01-28T11:12:11.828Z,6884
2018-01-28T11:13:11.571Z,6692
2018-01-28T11:14:11.812Z,7580
2018-01-28T11:15:11.801Z,8184
2018-01-28T11:16:11.797Z,8536
2018-01-28T11:17:11.785Z,8228
2018-01-28T11:18:11.271Z,8232
2018-01-28T11:19:11.255Z,7948
2018-01-28T11:20:11.966Z,6996
2018-01-28T11:21:11.509Z,6244
2018-01-28T11:22:11.486Z,6476
2018-01-28T11:23:11.728Z,5760
2018-01-28T11:24:11.726Z,4940
2018-01-28T11:25:11.716Z,5032
2018-01-28T11:26:11.454Z,6164
2018-01-28T11:27:11.456Z,5872
2018-01-28T11:28:11.182Z,5364
2018-01-28T11:29:11.185Z,4240
2018-01-28T11:30:11.421Z,3300
2018-01-28T11:31:11.673Z,3364
2018-01-28T11:32:11.401Z,3844
2018-01-28T11:33:11.642Z,4172
2018-01-28T11:34:11.689Z,4216
2018-01-28T11:35:11.642Z,4596
2018-01-28T11:36:11.617Z,4928
2018-01-28T11:37:11.613Z,5092
2018-01-28T11:38:11.414Z,5464
2018-01-28T11:39:11.339Z,6400
2018-01-28T11:40:11.587Z,7012
2018-01-28T11:41:11.330Z,7688
2018-01-28T11:42:11.583Z,7712
2018-01-28T11:43:11.980Z,7056
2018-01-28T11:44:11.297Z,6256
2018-01-28T11:45:11.541Z,5660
2018-01-28T11:46:11.278Z,5200
2018-01-28T11:47:11.525Z,5152
2018-01-28T11:48:11.018Z,4960
2018-01-28T11:49:11.258Z,4724
2018-01-28T11:50:11.246Z,5276
2018-01-28T11:51:11.244Z,5768
2018-01-28T11:52:11.484Z,6228
2018-01-28T11:53:11.488Z,6424
2018-01-28T11:54:11.482Z,6340
2018-01-28T11:55:11.458Z,5220
2018-01-28T11:56:11.483Z,5192
2018-01-28T11:57:11.470Z,5244
2018-01-28T11:58:11.251Z,4452
2018-01-28T11:59:11.184Z,4792
2018-01-28T12:00:10.934Z,4552
2018-01-28T12:01:11.416Z,3620
2018-01-28T12:02:11.416Z,2608
2018-01-28T12:03:11.157Z,2580
2018-01-28T12:04:11.378Z,2728
2018-01-28T12:05:11.410Z,2004
2018-01-28T12:06:11.114Z,2468
2018-01-28T12:07:11.366Z,2748
2018-01-28T12:08:11.340Z,3092
2018-01-28T12:09:10.837Z,2788
2018-01-28T12:10:11.328Z,2408
2018-01-28T12:11:10.814Z,2596
2018-01-28T12:12:11.069Z,2092
2018-01-28T12:13:11.059Z,2860
2018-01-28T12:14:10.829Z,1972
2018-01-28T12:15:11.284Z,2524
2018-01-28T12:16:11.029Z,4072
2018-01-28T12:17:11.017Z,5676
2018-01-28T12:18:11.001Z,6184
2018-01-28T12:19:11.252Z,6640
2018-01-28T12:20:10.990Z,7680
2018-01-28T12:21:10.720Z,6920
2018-01-28T12:22:10.995Z,5792
2018-01-28T12:23:10.960Z,5524
2018-01-28T12:24:10.958Z,5348
2018-01-28T12:25:11.200Z,5596
2018-01-28T12:26:11.201Z,5564
2018-01-28T12:27:11.175Z,4384
2018-01-28T12:28:11.172Z,3416
2018-01-28T12:29:11.169Z,4176
2018-01-28T12:30:11.146Z,4144
2018-01-28T12:31:11.150Z,3728
2018-01-28T12:32:11.133Z,3600
2018-01-28T12:33:10.882Z,2448
2018-01-28T12:34:10.900Z,2468
2018-01-28T12:35:10.851Z,2104
2018-01-28T12:36:10.881Z,1780
2018-01-28T12:37:10.836Z,892
2018-01-28T12:38:10.567Z,1156
2018-01-28T12:39:10.833Z,1420
2018-01-28T12:40:10.825Z,1968
2018-01-28T12:41:10.813Z,3312
2018-01-28T12:42:11.115Z,4700
2018-01-28T12:43:11.052Z,5148
2018-01-28T12:44:10.770Z,4216
2018-01-28T12:45:10.759Z,5144
2018-01-28T12:46:11.005Z,5200
2018-01-28T12:47:11.004Z,5056
2018-01-28T12:48:10.977Z,4936
2018-01-28T12:49:10.724Z,4328
2018-01-28T12:50:10.465Z,3680
2018-01-28T12:51:10.705Z,3188
2018-01-28T12:52:10.958Z,3132
2018-01-28T12:53:10.941Z,3760
2018-01-28T12:54:10.934Z,4320
2018-01-28T12:55:10.940Z,4924
2018-01-28T12:56:10.655Z,5324
2018-01-28T12:57:10.900Z,5572
2018-01-28T12:58:10.931Z,5544
2018-01-28T12:59:10.880Z,5636
2018-01-28T13:00:10.620Z,5384
2018-01-28T13:01:10.858Z,4560
2018-01-28T13:02:10.858Z,4492
2018-01-28T13:03:10.853Z,5188
2018-01-28T13:04:10.584Z,5972
2018-01-28T13:05:10.874Z,6400
2018-01-28T13:06:10.557Z,5976
2018-01-28T13:07:10.804Z,5332
2018-01-28T13:08:10.808Z,5308
2018-01-28T13:09:10.799Z,5596
2018-01-28T13:10:10.525Z,5244
2018-01-28T13:11:10.781Z,4712
2018-01-28T13:12:10.265Z,4600
2018-01-28T13:13:10.498Z,4376
2018-01-28T13:14:10.491Z,4288
2018-01-28T13:15:10.253Z,4612
2018-01-28T13:16:10.227Z,4984
2018-01-28T13:17:10.715Z,5272
2018-01-28T13:18:10.466Z,5068
2018-01-28T13:19:10.701Z,4880
2018-01-28T13:20:10.601Z,4500
2018-01-28T13:21:10.478Z,4320
2018-01-28T13:22:10.681Z,4900
2018-01-28T13:23:10.668Z,5592
2018-01-28T13:24:10.148Z,5840
2018-01-28T13:25:10.411Z,6072
2018-01-28T13:26:10.634Z,6108
2018-01-28T13:27:10.397Z,5828
2018-01-28T13:28:10.630Z,5712
2018-01-28T13:29:10.624Z,5384
2018-01-28T13:30:10.609Z,5228
2018-01-28T13:31:10.088Z,4948
2018-01-28T13:32:10.089Z,4432
2018-01-28T13:33:10.585Z,4076
2018-01-28T13:34:10.562Z,4120
2018-01-28T13:35:10.558Z,4316
2018-01-28T13:36:10.296Z,4256
2018-01-28T13:37:10.289Z,4220
2018-01-28T13:38:10.529Z,4380
2018-01-28T13:39:10.277Z,4500
2018-01-28T13:40:10.282Z,4396
2018-01-28T13:41:10.520Z,4348
2018-01-28T13:42:10.565Z,4240
2018-01-28T13:43:10.234Z,4144
2018-01-28T13:44:10.520Z,4256
2018-01-28T13:45:10.279Z,4072
2018-01-28T13:46:10.067Z,4596
2018-01-28T13:47:10.300Z,4648
2018-01-28T13:48:10.446Z,4628
2018-01-28T13:49:10.441Z,4628
2018-01-28T13:50:10.500Z,4548
2018-01-28T13:51:09.951Z,4196
2018-01-28T13:52:09.910Z,3932
2018-01-28T13:53:09.896Z,4300
2018-01-28T13:54:10.490Z,3996
2018-01-28T13:55:10.146Z,3080
2018-01-28T13:56:10.180Z,2780
2018-01-28T13:57:10.183Z,3288
2018-01-28T13:58:10.198Z,3792
2018-01-28T13:59:09.889Z,4000
2018-01-28T14:00:10.142Z,3900
2018-01-28T14:01:10.370Z,3920
2018-01-28T14:02:10.069Z,3608